Time;durP1;ratioP1;P1;durP2;ratioP2;P2;SDS_P1;SDS_P2;PMS_P1;PMS_P2;Temp;Humidity;BMP_temperature;BMP_pressure;BME280_temperature;BME280_humidity;BME280_pressure;Samples;Min_cycle;Max_cycle;Signal;HPM_P1;HPM_P2
2022/04/09 00:00:00;;;;;;;2.30;1.60;;;0.90;99.90;;;;;;5055269;28;20234;-76
2022/04/09 00:02:27;;;;;;;1.58;1.48;;;0.90;99.90;;;;;;5056049;28;20236;-76
2022/04/09 00:04:54;;;;;;;2.45;1.85;;;0.90;99.90;;;;;;5055498;28;20289;-77
2022/04/09 00:07:21;;;;;;;1.60;1.50;;;0.90;99.90;;;;;;5060344;28;20253;-78
2022/04/09 00:09:49;;;;;;;3.33;2.20;;;0.90;99.90;;;;;;5067861;28;20207;-78
2022/04/09 00:12:16;;;;;;;2.63;2.33;;;1.00;99.90;;;;;;5064654;28;20242;-79
2022/04/09 00:14:43;;;;;;;2.60;2.33;;;1.00;99.90;;;;;;5062311;28;20245;-78
2022/04/09 00:17:10;;;;;;;3.55;2.85;;;1.00;99.90;;;;;;5070550;28;20265;-75
2022/04/09 00:19:37;;;;;;;2.30;2.10;;;1.10;99.90;;;;;;5073192;28;20203;-77
2022/04/09 00:22:04;;;;;;;2.75;2.45;;;1.10;99.90;;;;;;5072949;28;20206;-78
2022/04/09 00:24:31;;;;;;;3.20;2.63;;;1.20;99.90;;;;;;5074413;28;20206;-78
2022/04/09 00:27:00;;;;;;;4.47;2.78;;;1.20;99.90;;;;;;5075161;28;20230;-76
2022/04/09 00:29:26;;;;;;;2.47;2.28;;;1.30;99.90;;;;;;5075026;28;20202;-77
2022/04/09 00:31:53;;;;;;;4.22;2.30;;;1.30;99.90;;;;;;5075155;28;20237;-77
2022/04/09 00:34:20;;;;;;;3.47;2.70;;;1.30;99.90;;;;;;5074516;28;20222;-78
2022/04/09 00:36:47;;;;;;;3.95;3.47;;;1.40;99.90;;;;;;5064278;28;20223;-77
2022/04/09 00:39:14;;;;;;;4.75;3.80;;;1.50;99.90;;;;;;5055479;28;20672;-78
2022/04/09 00:41:41;;;;;;;8.30;4.60;;;1.50;99.90;;;;;;5057625;28;20249;-78
2022/04/09 00:44:18;;;;;;;6.57;4.60;;;1.50;99.90;;;;;;5059128;28;20293;-78
2022/04/09 00:46:45;;;;;;;5.13;4.20;;;1.50;99.90;;;;;;5055287;28;20241;-77
2022/04/09 00:49:12;;;;;;;5.47;4.32;;;1.50;99.90;;;;;;5055717;28;20198;-77
2022/04/09 00:51:41;;;;;;;6.25;5.15;;;1.40;99.90;;;;;;5054997;28;20233;-78
2022/04/09 00:54:11;;;;;;;4.07;3.60;;;1.40;99.90;;;;;;5042351;28;20223;-78
2022/04/09 00:56:39;;;;;;;5.43;4.78;;;1.40;99.90;;;;;;5035452;28;20302;-78
2022/04/09 00:59:10;;;;;;;8.18;5.25;;;1.40;99.90;;;;;;5055361;28;20293;-78
2022/04/09 01:01:40;;;;;;;6.55;5.00;;;1.30;99.90;;;;;;5060705;28;20195;-77
2022/04/09 01:04:08;;;;;;;7.25;5.50;;;1.40;99.90;;;;;;5063935;28;20241;-78
2022/04/09 01:06:36;;;;;;;7.25;5.53;;;1.30;99.90;;;;;;5063622;28;20509;-79
2022/04/09 01:09:04;;;;;;;6.40;5.75;;;1.30;99.90;;;;;;5065407;28;20238;-77
2022/04/09 01:11:32;;;;;;;6.82;5.82;;;1.30;99.90;;;;;;5057955;28;20237;-79
2022/04/09 01:13:59;;;;;;;5.97;4.88;;;1.30;99.90;;;;;;5055661;28;20213;-78
2022/04/09 01:16:28;;;;;;;6.88;5.00;;;1.40;99.90;;;;;;5054436;28;20233;-78
2022/04/09 01:18:58;;;;;;;7.32;5.25;;;1.40;99.90;;;;;;5053857;28;20240;-79
2022/04/09 01:21:25;;;;;;;6.97;5.07;;;1.50;99.90;;;;;;5055088;28;20234;-78
2022/04/09 01:23:54;;;;;;;6.43;4.78;;;1.50;99.90;;;;;;5054638;28;20230;-78
2022/04/09 01:26:21;;;;;;;6.05;4.60;;;1.50;99.90;;;;;;5055258;28;20234;-77
2022/04/09 01:28:51;;;;;;;5.75;4.20;;;1.50;99.90;;;;;;5058771;28;20201;-78
2022/04/09 01:31:18;;;;;;;5.07;3.60;;;1.50;99.90;;;;;;5058316;28;20209;-77
2022/04/09 01:33:46;;;;;;;4.53;3.60;;;1.50;99.90;;;;;;5061548;28;20580;-77
2022/04/09 01:36:14;;;;;;;6.45;3.95;;;1.50;99.90;;;;;;5061989;28;20620;-77
2022/04/09 01:38:41;;;;;;;4.22;3.40;;;1.50;99.90;;;;;;5059340;28;20248;-77
2022/04/09 01:41:10;;;;;;;3.20;2.85;;;1.50;99.90;;;;;;5059593;28;20219;-77
2022/04/09 01:43:38;;;;;;;4.90;3.03;;;1.50;99.90;;;;;;5059950;28;20207;-77
2022/04/09 01:46:05;;;;;;;2.33;2.13;;;1.50;99.90;;;;;;5057972;28;20249;-78
2022/04/09 01:48:32;;;;;;;3.05;2.00;;;1.50;99.90;;;;;;5058156;28;20216;-78
2022/04/09 01:50:58;;;;;;;3.00;2.70;;;1.50;99.90;;;;;;5058245;28;20214;-77
2022/04/09 01:53:26;;;;;;;2.70;2.05;;;1.50;99.90;;;;;;5059030;28;20207;-77
2022/04/09 01:55:53;;;;;;;2.10;1.90;;;1.50;99.90;;;;;;5058616;28;20222;-77
2022/04/09 01:58:21;;;;;;;2.30;2.00;;;1.50;99.90;;;;;;5060002;28;20198;-78
2022/04/09 02:00:48;;;;;;;2.45;2.22;;;1.50;99.90;;;;;;5069833;28;20210;-78
2022/04/09 02:03:15;;;;;;;2.35;1.80;;;1.60;99.90;;;;;;5069882;28;20229;-77
2022/04/09 02:05:42;;;;;;;2.20;1.85;;;1.60;99.90;;;;;;5065247;28;20229;-77
2022/04/09 02:08:09;;;;;;;3.28;2.38;;;1.60;99.90;;;;;;5058406;28;20270;-78
2022/04/09 02:10:37;;;;;;;2.53;2.28;;;1.60;99.90;;;;;;5057844;28;20210;-78
2022/04/09 02:13:05;;;;;;;2.22;1.98;;;1.60;99.90;;;;;;5058289;28;20225;-78
2022/04/09 02:15:33;;;;;;;2.47;2.08;;;1.60;99.90;;;;;;5057833;28;20230;-78
2022/04/09 02:18:00;;;;;;;3.13;2.47;;;1.60;99.90;;;;;;5057934;28;20230;-78
2022/04/09 02:20:27;;;;;;;2.17;1.85;;;1.60;99.90;;;;;;5057819;28;20206;-77
2022/04/09 02:22:55;;;;;;;2.97;2.35;;;1.60;99.90;;;;;;5058392;28;20233;-78
2022/04/09 02:25:22;;;;;;;4.50;1.73;;;1.60;99.90;;;;;;5059947;28;20211;-78
2022/04/09 02:27:49;;;;;;;3.17;2.65;;;1.70;99.90;;;;;;5058249;28;20230;-78
2022/04/09 02:30:15;;;;;;;2.70;2.25;;;1.70;99.90;;;;;;5058330;28;20229;-78
2022/04/09 02:32:51;;;;;;;1.92;1.77;;;1.70;99.90;;;;;;5061136;28;20285;-78
2022/04/09 02:35:18;;;;;;;2.38;1.95;;;1.70;99.90;;;;;;5066568;28;20201;-77
2022/04/09 02:37:46;;;;;;;2.38;1.90;;;1.70;99.90;;;;;;5074763;28;20236;-77
2022/04/09 02:40:13;;;;;;;2.90;2.53;;;1.70;99.90;;;;;;5075101;28;20237;-77
2022/04/09 02:42:41;;;;;;;3.25;2.95;;;1.70;99.90;;;;;;5074771;28;20206;-77
2022/04/09 02:45:09;;;;;;;3.92;3.20;;;1.60;99.90;;;;;;5073988;28;20202;-76
2022/04/09 02:47:37;;;;;;;4.65;3.40;;;1.60;99.90;;;;;;5072500;28;20256;-78
2022/04/09 02:50:07;;;;;;;7.15;3.10;;;1.60;99.90;;;;;;5071305;28;20203;-76
2022/04/09 02:52:35;;;;;;;5.03;3.58;;;1.60;99.90;;;;;;5066272;28;20210;-78
2022/04/09 02:55:02;;;;;;;5.45;3.83;;;1.60;99.90;;;;;;5059472;28;20207;-77
2022/04/09 02:57:29;;;;;;;8.50;4.30;;;1.60;99.90;;;;;;5059049;28;20222;-77
2022/04/09 02:59:56;;;;;;;5.70;4.22;;;1.60;99.90;;;;;;5058843;28;20205;-79
2022/04/09 03:02:22;;;;;;;8.05;4.95;;;1.60;99.90;;;;;;5058720;28;20203;-77
2022/04/09 03:04:51;;;;;;;5.18;4.68;;;1.60;99.90;;;;;;5065498;28;20221;-78
2022/04/09 03:07:20;;;;;;;6.15;5.20;;;1.50;99.90;;;;;;5066970;28;20251;-77
2022/04/09 03:09:48;;;;;;;5.72;4.30;;;1.50;99.90;;;;;;5059169;28;20203;-78
2022/04/09 03:12:15;;;;;;;4.78;4.28;;;1.60;99.90;;;;;;5062754;28;20278;-77
2022/04/09 03:14:45;;;;;;;7.00;5.05;;;1.60;99.90;;;;;;5073595;28;20237;-77
2022/04/09 03:17:12;;;;;;;7.38;4.68;;;1.60;99.90;;;;;;5074352;28;20265;-77
2022/04/09 03:19:39;;;;;;;6.70;4.82;;;1.60;99.90;;;;;;5074252;28;20214;-78
2022/04/09 03:22:06;;;;;;;7.15;4.40;;;1.60;99.90;;;;;;5074575;28;20260;-77
2022/04/09 03:24:34;;;;;;;5.70;4.70;;;1.60;99.90;;;;;;5075563;28;20198;-76
2022/04/09 03:27:01;;;;;;;7.05;4.68;;;1.60;99.90;;;;;;5075052;28;20294;-77
2022/04/09 03:29:28;;;;;;;8.10;5.97;;;1.60;99.90;;;;;;5067325;28;20289;-78
2022/04/09 03:31:55;;;;;;;6.53;5.15;;;1.60;99.90;;;;;;5069178;28;20226;-78
2022/04/09 03:34:22;;;;;;;7.78;5.68;;;1.60;99.90;;;;;;5068173;28;20232;-78
2022/04/09 03:36:49;;;;;;;9.23;5.82;;;1.60;99.90;;;;;;5062996;28;20224;-77
2022/04/09 03:39:16;;;;;;;9.95;5.97;;;1.60;99.90;;;;;;5067980;28;20206;-77
2022/04/09 03:41:44;;;;;;;8.77;6.38;;;1.60;99.90;;;;;;5067814;28;20314;-77
2022/04/09 03:44:11;;;;;;;12.23;6.13;;;1.60;99.90;;;;;;5068499;28;20202;-79
2022/04/09 03:46:38;;;;;;;14.02;6.88;;;1.50;99.90;;;;;;5067968;28;20282;-78
2022/04/09 03:49:05;;;;;;;11.60;7.32;;;1.50;99.90;;;;;;5067348;28;20210;-77
2022/04/09 03:51:32;;;;;;;13.30;7.60;;;1.50;99.90;;;;;;5067516;28;20206;-78
2022/04/09 03:54:03;;;;;;;9.30;6.68;;;1.50;99.90;;;;;;5068284;28;20232;-78
2022/04/09 03:56:30;;;;;;;10.18;6.28;;;1.60;99.90;;;;;;5067949;28;20226;-77
2022/04/09 03:58:59;;;;;;;10.48;6.93;;;1.60;99.90;;;;;;5070520;28;20206;-78
2022/04/09 04:01:27;;;;;;;10.18;7.47;;;1.60;99.90;;;;;;5072258;28;20234;-78
2022/04/09 04:03:54;;;;;;;10.48;7.25;;;1.50;99.90;;;;;;5071906;28;20211;-78
2022/04/09 04:06:21;;;;;;;10.27;6.90;;;1.40;99.90;;;;;;5071538;28;20235;-79
2022/04/09 04:08:48;;;;;;;12.95;7.78;;;1.50;99.90;;;;;;5071209;28;20232;-78
2022/04/09 04:11:15;;;;;;;10.88;8.05;;;1.40;99.90;;;;;;5071127;28;20388;-78
2022/04/09 04:13:42;;;;;;;11.23;7.38;;;1.40;99.90;;;;;;5052677;28;20268;-77
2022/04/09 04:16:10;;;;;;;11.80;7.93;;;1.40;99.90;;;;;;5068542;23;20294;-72
2022/04/09 04:18:37;;;;;;;13.77;7.90;;;1.30;99.90;;;;;;5034478;28;20229;-74
2022/04/09 04:21:04;;;;;;;12.50;7.80;;;1.40;99.90;;;;;;5034543;28;20218;-74
2022/04/09 04:23:31;;;;;;;12.50;7.53;;;1.30;99.90;;;;;;5035570;28;20294;-72
2022/04/09 04:25:58;;;;;;;13.32;7.50;;;1.30;99.90;;;;;;5035882;28;20601;-73
2022/04/09 04:28:25;;;;;;;12.20;7.78;;;1.30;99.90;;;;;;5034764;28;20223;-74
2022/04/09 04:30:52;;;;;;;11.55;8.15;;;1.30;99.90;;;;;;5021887;28;20208;-75
2022/04/09 04:33:20;;;;;;;14.60;8.63;;;1.40;99.90;;;;;;5014300;28;20219;-73
2022/04/09 04:35:47;;;;;;;15.25;9.40;;;1.50;99.90;;;;;;5025769;28;20195;-74
2022/04/09 04:38:14;;;;;;;16.15;9.15;;;1.50;99.90;;;;;;5031528;28;20289;-73
2022/04/09 04:40:41;;;;;;;14.50;9.20;;;1.50;99.90;;;;;;5033769;28;20211;-73
2022/04/09 04:43:08;;;;;;;13.48;8.93;;;1.50;99.90;;;;;;5024550;28;20307;-74
2022/04/09 04:45:35;;;;;;;16.25;10.70;;;1.50;99.90;;;;;;5013658;28;20208;-74
2022/04/09 04:48:02;;;;;;;19.90;11.15;;;1.50;99.90;;;;;;5020407;28;20306;-74
2022/04/09 04:50:30;;;;;;;17.38;9.77;;;1.60;99.90;;;;;;5033699;28;20206;-74
2022/04/09 04:52:57;;;;;;;19.30;10.60;;;1.60;99.90;;;;;;5027744;28;20223;-73
2022/04/09 04:55:24;;;;;;;18.30;11.15;;;1.60;99.90;;;;;;5015922;28;20231;-73
2022/04/09 04:57:52;;;;;;;13.77;9.05;;;1.70;99.90;;;;;;5024527;28;20276;-73
2022/04/09 05:00:20;;;;;;;16.98;9.38;;;1.70;99.90;;;;;;5040922;28;20302;-73
2022/04/09 05:02:47;;;;;;;22.10;10.25;;;1.70;99.90;;;;;;5032085;28;20243;-74
2022/04/09 05:05:14;;;;;;;16.70;10.80;;;1.70;99.90;;;;;;5016462;28;20207;-74
2022/04/09 05:07:44;;;;;;;18.33;11.00;;;1.70;99.90;;;;;;5015049;28;20220;-74
2022/04/09 05:10:12;;;;;;;17.20;10.98;;;1.80;99.90;;;;;;5013057;28;20687;-74
2022/04/09 05:12:40;;;;;;;22.50;11.27;;;1.80;99.90;;;;;;5025496;28;20544;-74
2022/04/09 05:15:09;;;;;;;22.50;12.15;;;1.80;99.90;;;;;;5033500;28;20667;-73
2022/04/09 05:17:36;;;;;;;28.08;13.90;;;2.00;99.90;;;;;;5022120;28;20237;-74
2022/04/09 05:20:04;;;;;;;24.00;13.93;;;2.10;99.90;;;;;;5014302;28;20208;-73
2022/04/09 05:22:32;;;;;;;26.10;14.88;;;2.20;99.90;;;;;;5015681;28;20258;-74
2022/04/09 05:25:00;;;;;;;30.52;14.93;;;2.30;99.90;;;;;;5015344;28;20212;-73
2022/04/09 05:27:27;;;;;;;24.00;13.18;;;2.30;99.90;;;;;;5015414;28;20231;-73
2022/04/09 05:29:54;;;;;;;24.17;14.18;;;2.50;99.90;;;;;;5016445;28;20242;-73
2022/04/09 05:32:21;;;;;;;26.88;14.73;;;2.70;99.90;;;;;;5016021;28;20203;-74
2022/04/09 05:34:49;;;;;;;25.98;14.57;;;2.80;99.90;;;;;;5020614;28;20199;-74
2022/04/09 05:37:17;;;;;;;26.35;15.15;;;2.90;99.90;;;;;;5038030;28;20227;-74
2022/04/09 05:39:46;;;;;;;23.55;13.93;;;3.00;99.90;;;;;;5038486;28;20239;-74
2022/04/09 05:42:15;;;;;;;22.48;13.68;;;3.10;99.90;;;;;;5026020;28;20212;-74
2022/04/09 05:44:42;;;;;;;21.08;13.55;;;3.20;99.90;;;;;;5027983;28;20218;-74
2022/04/09 05:47:09;;;;;;;17.30;12.05;;;3.30;99.90;;;;;;5052309;28;20298;-74
2022/04/09 05:49:36;;;;;;;17.15;11.50;;;3.40;99.90;;;;;;5052995;28;20298;-74
2022/04/09 05:52:03;;;;;;;15.75;12.13;;;3.60;99.90;;;;;;5034434;28;20219;-73
2022/04/09 05:54:31;;;;;;;17.95;12.38;;;3.60;99.90;;;;;;5034716;28;20277;-73
2022/04/09 05:56:59;;;;;;;13.90;10.38;;;3.70;99.90;;;;;;5035000;28;20224;-72
2022/04/09 05:59:27;;;;;;;20.38;11.93;;;3.70;99.90;;;;;;5034295;28;20204;-73
2022/04/09 06:01:54;;;;;;;15.52;11.32;;;3.80;99.90;;;;;;5034142;28;20211;-74
2022/04/09 06:04:21;;;;;;;13.93;10.20;;;3.90;99.90;;;;;;5040096;28;20225;-73
2022/04/09 06:06:48;;;;;;;15.70;11.05;;;4.00;99.90;;;;;;5053602;28;20250;-73
2022/04/09 06:09:15;;;;;;;16.33;10.82;;;3.80;99.90;;;;;;5052402;28;20207;-73
2022/04/09 06:11:43;;;;;;;15.35;11.15;;;3.80;99.40;;;;;;5054393;28;20239;-73
2022/04/09 06:14:10;;;;;;;16.45;10.55;;;3.70;98.50;;;;;;5052748;28;20203;-72
2022/04/09 06:16:40;;;;;;;14.43;10.15;;;3.70;98.40;;;;;;5036533;28;20231;-73
2022/04/09 06:19:07;;;;;;;16.73;12.27;;;3.70;98.50;;;;;;5037454;28;20517;-72
2022/04/09 06:21:35;;;;;;;18.70;12.40;;;3.60;98.70;;;;;;5053140;28;20234;-74
2022/04/09 06:24:01;;;;;;;15.60;12.10;;;3.50;99.30;;;;;;5058789;28;20191;-72
2022/04/09 06:26:28;;;;;;;18.75;12.07;;;3.50;99.70;;;;;;5045909;28;20223;-73
2022/04/09 06:28:56;;;;;;;20.30;13.35;;;3.50;99.80;;;;;;5037712;28;20250;-73
2022/04/09 06:31:23;;;;;;;17.80;12.40;;;3.40;99.80;;;;;;5044055;28;20215;-73
2022/04/09 06:33:52;;;;;;;16.50;12.95;;;3.50;99.90;;;;;;5037730;28;20285;-74
2022/04/09 06:36:19;;;;;;;21.05;12.23;;;3.50;99.90;;;;;;5036572;28;20230;-74
2022/04/09 06:38:46;;;;;;;17.90;12.02;;;3.50;99.90;;;;;;5036800;28;20754;-73
2022/04/09 06:41:14;;;;;;;19.83;14.10;;;3.60;99.90;;;;;;5028968;28;20204;-75
2022/04/09 06:43:40;;;;;;;17.20;11.70;;;3.60;99.90;;;;;;5036604;28;20615;-74
2022/04/09 06:46:08;;;;;;;17.65;13.13;;;3.60;99.90;;;;;;5048820;28;20227;-74
2022/04/09 06:48:35;;;;;;;17.17;12.25;;;3.70;99.90;;;;;;5049333;28;20253;-75
2022/04/09 06:51:03;;;;;;;17.63;12.85;;;3.70;99.90;;;;;;5048851;28;20217;-73
2022/04/09 06:53:30;;;;;;;19.25;12.25;;;3.70;99.90;;;;;;5041053;28;20207;-74
2022/04/09 06:55:57;;;;;;;19.08;12.75;;;3.70;99.90;;;;;;5035640;28;20223;-74
2022/04/09 06:58:24;;;;;;;20.52;13.35;;;3.80;99.90;;;;;;5035120;28;20192;-73
2022/04/09 07:00:51;;;;;;;22.40;14.00;;;3.80;99.70;;;;;;5035531;28;20262;-74
2022/04/09 07:03:18;;;;;;;23.48;14.18;;;3.90;99.80;;;;;;5033788;28;20239;-74
2022/04/09 07:05:45;;;;;;;19.17;12.60;;;4.00;99.50;;;;;;5035271;28;20215;-75
2022/04/09 07:08:13;;;;;;;19.02;13.52;;;4.10;99.30;;;;;;5030047;28;20234;-75
2022/04/09 07:10:40;;;;;;;20.70;12.55;;;4.20;98.50;;;;;;5034843;28;20205;-74
2022/04/09 07:13:07;;;;;;;17.67;11.93;;;4.30;97.90;;;;;;5034930;28;20567;-75
2022/04/09 07:15:34;;;;;;;20.65;13.77;;;4.40;97.10;;;;;;5036704;28;20656;-74
2022/04/09 07:18:01;;;;;;;17.38;12.40;;;4.50;96.60;;;;;;5029890;28;20445;-74
2022/04/09 07:20:29;;;;;;;16.05;11.55;;;4.50;94.60;;;;;;5020493;28;20208;-75
2022/04/09 07:22:56;;;;;;;18.15;12.10;;;4.50;94.40;;;;;;5037459;28;20218;-76
2022/04/09 07:25:24;;;;;;;17.40;12.60;;;4.60;93.60;;;;;;5037216;28;20229;-75
2022/04/09 07:27:51;;;;;;;17.42;12.95;;;4.60;91.90;;;;;;5022149;28;20231;-74
2022/04/09 07:30:19;;;;;;;19.27;12.55;;;4.70;91.80;;;;;;5016623;28;20219;-75
2022/04/09 07:32:47;;;;;;;20.73;10.98;;;4.70;91.70;;;;;;5031489;28;20200;-75
2022/04/09 07:35:15;;;;;;;19.02;12.48;;;4.80;90.80;;;;;;5016623;28;20199;-75
2022/04/09 07:37:43;;;;;;;18.30;11.55;;;4.80;90.30;;;;;;5025540;28;20571;-74
2022/04/09 07:40:11;;;;;;;17.80;11.25;;;4.70;90.20;;;;;;5032350;28;20210;-75
2022/04/09 07:42:41;;;;;;;17.58;12.05;;;4.80;90.10;;;;;;5026250;28;20631;-73
2022/04/09 07:45:09;;;;;;;20.35;12.30;;;4.90;89.50;;;;;;5028803;28;20415;-76
2022/04/09 07:47:36;;;;;;;17.92;12.40;;;5.20;88.60;;;;;;5021493;28;20227;-75
2022/04/09 07:50:06;;;;;;;17.75;12.75;;;5.20;85.60;;;;;;5036375;28;20471;-74
2022/04/09 07:52:33;;;;;;;15.98;11.07;;;5.20;84.00;;;;;;5037678;28;20242;-76
2022/04/09 07:55:00;;;;;;;13.65;11.02;;;5.10;84.60;;;;;;5019424;28;20200;-77
2022/04/09 07:57:27;;;;;;;13.43;10.43;;;5.20;84.00;;;;;;5019956;28;20235;-76
2022/04/09 07:59:57;;;;;;;16.33;11.38;;;5.30;85.00;;;;;;5029801;28;20207;-76
2022/04/09 08:02:25;;;;;;;15.70;10.95;;;5.40;83.30;;;;;;5023800;28;20295;-76
2022/04/09 08:04:52;;;;;;;17.88;11.75;;;5.40;81.70;;;;;;5026816;28;20214;-76
2022/04/09 08:07:19;;;;;;;16.40;12.18;;;5.40;81.10;;;;;;5043996;28;20222;-76
2022/04/09 08:09:45;;;;;;;13.73;10.57;;;5.50;80.20;;;;;;5052557;28;20211;-76
2022/04/09 08:12:13;;;;;;;13.65;10.95;;;5.60;81.00;;;;;;5050812;28;20207;-75
2022/04/09 08:14:40;;;;;;;15.65;11.38;;;5.60;80.20;;;;;;5046860;28;20204;-76
2022/04/09 08:17:10;;;;;;;19.20;11.60;;;5.50;79.20;;;;;;5044904;28;20646;-76
2022/04/09 08:19:37;;;;;;;15.48;11.32;;;5.60;80.80;;;;;;5043782;28;20210;-74
2022/04/09 08:22:05;;;;;;;19.15;11.10;;;5.70;79.60;;;;;;5043709;28;20345;-74
2022/04/09 08:24:32;;;;;;;14.45;10.27;;;5.90;79.60;;;;;;5043785;28;20669;-74
2022/04/09 08:26:59;;;;;;;13.68;10.60;;;6.10;78.20;;;;;;5045034;28;20710;-75
2022/04/09 08:29:26;;;;;;;12.63;9.50;;;6.30;77.60;;;;;;5047253;28;20257;-74
2022/04/09 08:31:53;;;;;;;10.45;8.90;;;6.60;75.40;;;;;;5049078;28;20271;-75
2022/04/09 08:34:22;;;;;;;12.50;9.45;;;6.90;71.20;;;;;;5050855;28;20210;-74
2022/04/09 08:36:49;;;;;;;12.30;8.77;;;7.00;66.10;;;;;;5048142;28;20265;-75
2022/04/09 08:39:16;;;;;;;15.00;9.98;;;7.10;65.50;;;;;;5040480;28;20639;-75
2022/04/09 08:41:44;;;;;;;12.93;9.63;;;6.70;65.70;;;;;;5037422;28;20318;-74
2022/04/09 08:44:12;;;;;;;13.40;9.23;;;6.40;66.50;;;;;;5034899;28;20241;-75
2022/04/09 08:46:41;;;;;;;14.63;9.18;;;6.30;68.20;;;;;;5048129;28;20304;-75
2022/04/09 08:49:09;;;;;;;10.10;8.13;;;6.10;69.30;;;;;;5051454;28;20257;-73
2022/04/09 08:51:38;;;;;;;9.95;8.43;;;6.10;69.40;;;;;;5043059;28;20218;-75
2022/04/09 08:54:05;;;;;;;12.57;9.55;;;6.10;69.60;;;;;;5037016;28;20205;-76
2022/04/09 08:56:34;;;;;;;12.57;9.27;;;6.30;70.10;;;;;;5026892;28;20591;-75
2022/04/09 08:59:01;;;;;;;13.07;9.57;;;6.40;69.90;;;;;;5039588;28;20219;-76
2022/04/09 09:01:31;;;;;;;12.52;8.20;;;6.20;67.30;;;;;;5043661;28;20694;-74
2022/04/09 09:03:58;;;;;;;13.25;9.15;;;6.40;69.80;;;;;;5043202;28;20233;-76
2022/04/09 09:06:27;;;;;;;11.98;8.27;;;6.80;69.30;;;;;;5037482;28;20744;-72
2022/04/09 09:08:56;;;;;;;12.05;9.85;;;7.00;66.30;;;;;;5038189;28;20270;-73
2022/04/09 09:11:23;;;;;;;15.48;8.40;;;7.20;66.40;;;;;;5023412;28;20720;-72
2022/04/09 09:13:51;;;;;;;14.25;9.00;;;7.30;67.50;;;;;;5027525;28;20230;-73
2022/04/09 09:16:27;;;;;;;12.05;8.18;;;7.30;64.10;;;;;;5034676;28;20259;-72
2022/04/09 09:18:55;;;;;;;11.90;7.70;;;7.10;63.40;;;;;;5028836;28;20681;-73
2022/04/09 09:21:26;;;;;;;12.65;7.70;;;7.00;63.30;;;;;;5018866;28;20576;-73
2022/04/09 09:24:11;;;;;;;8.98;7.88;;;7.10;63.40;;;;;;5032897;28;20559;-76
2022/04/09 09:26:39;;;;;;;10.18;6.78;;;7.00;62.50;;;;;;5029176;28;20231;-76
2022/04/09 09:29:06;;;;;;;8.80;6.63;;;6.80;60.80;;;;;;5023144;28;20587;-77
2022/04/09 09:31:41;;;;;;;10.27;7.57;;;6.80;60.70;;;;;;5022292;28;20196;-76
2022/04/09 09:34:10;;;;;;;8.82;5.80;;;6.90;59.10;;;;;;5037003;28;20221;-76
2022/04/09 09:36:38;;;;;;;10.45;6.32;;;7.20;57.80;;;;;;5022261;28;20687;-75
2022/04/09 09:39:07;;;;;;;12.98;6.00;;;7.60;57.60;;;;;;5020109;28;20247;-75
2022/04/09 09:41:34;;;;;;;7.88;6.68;;;8.00;55.60;;;;;;5017589;28;20299;-76
2022/04/09 09:44:06;;;;;;;11.73;6.03;;;8.40;55.00;;;;;;5016111;28;20210;-76
2022/04/09 09:46:34;;;;;;;6.40;5.80;;;8.80;53.60;;;;;;5015664;28;20274;-76
2022/04/09 09:49:01;;;;;;;11.43;6.50;;;8.70;52.00;;;;;;5018559;28;20224;-76
2022/04/09 09:51:28;;;;;;;8.95;5.72;;;8.50;52.00;;;;;;5019931;28;20212;-76
2022/04/09 09:54:06;;;;;;;7.25;5.38;;;8.30;53.50;;;;;;5021151;28;20216;-76
2022/04/09 09:56:36;;;;;;;10.70;5.80;;;8.40;51.50;;;;;;5018866;28;20235;-76
2022/04/09 09:59:05;;;;;;;8.57;4.95;;;8.60;51.00;;;;;;5018988;28;20299;-75
2022/04/09 10:01:35;;;;;;;10.73;4.53;;;8.80;49.20;;;;;;5019689;28;20208;-75
2022/04/09 10:04:03;;;;;;;8.70;4.72;;;9.10;48.00;;;;;;5019049;28;20208;-75
2022/04/09 10:06:31;;;;;;;9.98;4.45;;;9.30;47.70;;;;;;5018451;28;20255;-76
2022/04/09 10:08:59;;;;;;;6.50;4.55;;;9.30;48.30;;;;;;5020385;28;20322;-75
2022/04/09 10:11:28;;;;;;;9.07;4.18;;;9.30;47.30;;;;;;5023738;28;20288;-76
2022/04/09 10:13:57;;;;;;;10.20;4.50;;;9.30;47.10;;;;;;5030542;28;20222;-75
2022/04/09 10:16:27;;;;;;;10.15;4.47;;;9.40;46.30;;;;;;5080071;23;20242;-80
2022/04/09 10:19:00;;;;;;;4.13;3.72;;;9.50;45.00;;;;;;5049350;28;20211;-81
2022/04/09 10:21:28;;;;;;;6.70;4.90;;;9.60;45.90;;;;;;5054097;28;20231;-81
2022/04/09 10:23:57;;;;;;;10.55;5.45;;;9.50;46.60;;;;;;5057919;28;20211;-78
2022/04/09 10:26:24;;;;;;;9.80;3.90;;;9.30;47.00;;;;;;5057368;28;20222;-81
2022/04/09 10:28:53;;;;;;;6.45;3.70;;;9.40;44.30;;;;;;5042025;28;20269;-79
2022/04/09 10:31:34;;;;;;;9.93;4.32;;;9.00;44.50;;;;;;5042606;28;20207;-81
2022/04/09 10:34:02;;;;;;;8.38;4.78;;;8.90;46.40;;;;;;5042695;28;20281;-77
2022/04/09 10:37:06;;;;;;;8.52;5.00;;;8.80;47.90;;;;;;5040888;28;20234;-78
2022/04/09 10:39:47;;;;;;;5.38;4.32;;;8.60;47.10;;;;;;5039246;28;20209;-79
2022/04/09 10:42:50;;;;;;;6.20;4.38;;;8.30;48.80;;;;;;5054743;28;20238;-78
2022/04/09 10:45:19;;;;;;;7.60;5.25;;;8.40;48.80;;;;;;5053413;28;20203;-81
2022/04/09 10:48:05;;;;;;;6.45;5.15;;;8.70;49.10;;;;;;5050667;28;20223;-78
2022/04/09 10:50:54;;;;;;;11.68;4.35;;;8.90;45.70;;;;;;5057842;28;20227;-79
2022/04/09 10:53:23;;;;;;;5.80;4.80;;;9.00;45.60;;;;;;5047806;28;20215;-80
2022/04/09 10:56:17;;;;;;;8.32;3.90;;;9.20;46.70;;;;;;5043020;28;20207;-81
2022/04/09 10:59:01;;;;;;;6.70;3.83;;;9.40;44.90;;;;;;5044925;28;20215;-81
2022/04/09 11:02:00;;;;;;;9.95;3.72;;;9.50;43.10;;;;;;5053836;28;20211;-80
2022/04/09 11:04:45;;;;;;;9.95;3.78;;;9.90;41.90;;;;;;4974045;29;20218;-81
2022/04/09 11:07:15;;;;;;;9.23;4.22;;;9.90;44.10;;;;;;5045147;28;20295;-81
2022/04/09 11:09:53;;;;;;;6.40;2.88;;;9.70;42.30;;;;;;5056024;28;20227;-79
2022/04/09 11:12:24;;;;;;;7.00;4.35;;;9.80;40.30;;;;;;5058541;28;20234;-78
2022/04/09 11:14:54;;;;;;;6.22;2.67;;;10.30;41.80;;;;;;5057963;28;20234;-78
2022/04/09 11:17:31;;;;;;;5.75;3.10;;;10.70;37.60;;;;;;5045257;28;20256;-83
2022/04/09 11:20:02;;;;;;;4.30;3.05;;;10.90;37.60;;;;;;5043964;28;20210;-81
2022/04/09 11:22:34;;;;;;;4.80;3.00;;;10.80;35.50;;;;;;5044606;28;20199;-80
2022/04/09 11:25:01;;;;;;;5.45;3.25;;;10.60;37.10;;;;;;5046438;28;20214;-80
2022/04/09 11:27:29;;;;;;;7.63;3.53;;;10.50;39.20;;;;;;5043884;28;20870;-81
2022/04/09 11:29:56;;;;;;;7.95;3.22;;;10.20;39.70;;;;;;5047263;28;20231;-82
2022/04/09 11:32:24;;;;;;;7.90;3.35;;;10.10;39.60;;;;;;5050813;28;20211;-82
2022/04/09 11:34:54;;;;;;;8.35;3.75;;;10.50;39.00;;;;;;5047160;28;20218;-80
2022/04/09 11:37:23;;;;;;;5.05;2.85;;;10.80;39.70;;;;;;5049188;28;20802;-80
2022/04/09 11:39:51;;;;;;;4.70;2.85;;;11.30;37.10;;;;;;5046266;28;20234;-78
2022/04/09 11:42:19;;;;;;;5.57;2.53;;;11.40;34.90;;;;;;5048773;28;20209;-80
2022/04/09 11:44:46;;;;;;;9.07;2.65;;;11.30;33.80;;;;;;5042648;28;20210;-80
2022/04/09 11:47:16;;;;;;;3.35;2.63;;;11.10;35.40;;;;;;5035401;28;20696;-79
2022/04/09 11:49:45;;;;;;;4.55;2.20;;;10.90;34.30;;;;;;5039431;28;20392;-81
2022/04/09 11:52:15;;;;;;;5.25;2.28;;;10.40;35.10;;;;;;5044652;28;20200;-80
2022/04/09 11:54:43;;;;;;;8.90;2.50;;;10.70;33.90;;;;;;5038119;28;20291;-79
2022/04/09 11:57:12;;;;;;;10.60;2.83;;;10.80;34.30;;;;;;5047513;28;20200;-82
2022/04/09 11:59:41;;;;;;;7.80;2.85;;;10.80;34.50;;;;;;5055546;28;20209;-82
2022/04/09 12:02:20;;;;;;;7.95;3.63;;;10.50;33.90;;;;;;5046640;28;20211;-81
2022/04/09 12:04:48;;;;;;;3.08;2.20;;;10.50;35.60;;;;;;5044961;28;20234;-82
2022/04/09 12:07:17;;;;;;;11.45;2.80;;;10.40;36.00;;;;;;5046033;28;20291;-84
2022/04/09 12:09:45;;;;;;;11.85;3.55;;;10.30;35.10;;;;;;5046794;28;20252;-83
2022/04/09 12:12:12;;;;;;;6.65;2.08;;;10.10;35.90;;;;;;5045057;28;20294;-82
2022/04/09 12:14:40;;;;;;;6.93;3.08;;;10.10;36.10;;;;;;5048920;28;20215;-82
2022/04/09 12:17:15;;;;;;;9.23;2.70;;;10.10;36.50;;;;;;5047810;28;20246;-81
2022/04/09 12:19:43;;;;;;;3.00;2.08;;;10.50;34.70;;;;;;5050875;28;20195;-83
2022/04/09 12:22:19;;;;;;;5.68;2.25;;;10.70;33.60;;;;;;5046076;28;20226;-81
2022/04/09 12:24:54;;;;;;;3.50;2.00;;;10.90;32.50;;;;;;5046587;28;20199;-82
2022/04/09 12:27:21;;;;;;;5.82;2.50;;;10.80;33.00;;;;;;5050905;28;20291;-82
2022/04/09 12:29:51;;;;;;;6.65;2.13;;;10.80;31.80;;;;;;5053946;28;20223;-81
2022/04/09 12:32:23;;;;;;;6.20;2.67;;;10.50;33.80;;;;;;5058120;28;20256;-79
2022/04/09 12:34:55;;;;;;;5.65;2.42;;;10.60;32.70;;;;;;5057978;28;20230;-78
2022/04/09 12:37:23;;;;;;;6.03;2.58;;;10.80;33.30;;;;;;5058003;28;20231;-79
2022/04/09 12:39:51;;;;;;;3.50;2.40;;;10.70;32.50;;;;;;5058006;28;20255;-77
2022/04/09 12:42:30;;;;;;;9.27;3.15;;;10.60;32.60;;;;;;5057823;28;20242;-80
2022/04/09 12:45:13;;;;;;;7.43;2.50;;;11.00;32.10;;;;;;5058005;28;20199;-77
2022/04/09 12:47:40;;;;;;;7.40;2.83;;;11.20;30.60;;;;;;5057939;28;20211;-80
2022/04/09 12:50:22;;;;;;;5.80;2.35;;;11.00;29.80;;;;;;5057682;28;20246;-78
2022/04/09 12:52:50;;;;;;;5.03;2.10;;;10.50;30.00;;;;;;5057979;28;20202;-79
2022/04/09 12:55:18;;;;;;;5.15;2.00;;;10.30;31.70;;;;;;5057561;28;20198;-81